Time;durP1;ratioP1;P1;durP2;ratioP2;P2;SDS_P1;SDS_P2;PMS_P1;PMS_P2;Temp;Humidity;BMP_temperature;BMP_pressure;BME280_temperature;BME280_humidity;BME280_pressure;Samples;Min_cycle;Max_cycle;Signal;HPM_P1;HPM_P2
2023/12/21 00:01:22;;;;;;;0.15;0.15;;;;;;;4.62;100.00;95795.53;4973435;28;20070;-77
2023/12/21 00:04:11;;;;;;;0.20;0.20;;;;;;;4.60;100.00;95790.47;4975659;28;20106;-77
2023/12/21 00:06:57;;;;;;;0.20;0.20;;;;;;;4.63;100.00;95790.00;4973584;28;20054;-77
2023/12/21 00:09:43;;;;;;;0.20;0.20;;;;;;;4.63;100.00;95779.41;4974936;28;20050;-77
2023/12/21 00:12:28;;;;;;;0.20;0.20;;;;;;;4.63;100.00;95762.69;4973263;28;20224;-79
2023/12/21 00:15:14;;;;;;;0.10;0.10;;;;;;;4.62;100.00;95750.47;4975641;28;20034;-79
2023/12/21 00:18:00;;;;;;;0.10;0.10;;;;;;;4.61;100.00;95740.94;4972743;28;20042;-78
2023/12/21 00:20:46;;;;;;;0.10;0.10;;;;;;;4.62;100.00;95737.25;4972022;28;20065;-78
2023/12/21 00:23:32;;;;;;;0.20;0.20;;;;;;;4.66;100.00;95719.81;4976538;28;20141;-78
2023/12/21 00:26:18;;;;;;;0.20;0.20;;;;;;;4.67;100.00;95722.28;4973363;28;20038;-78
2023/12/21 00:29:04;;;;;;;0.20;0.20;;;;;;;4.70;100.00;95721.81;4974525;28;20046;-77
2023/12/21 00:31:50;;;;;;;0.10;0.10;;;;;;;4.74;100.00;95724.78;4973395;28;20270;-77
2023/12/21 00:34:36;;;;;;;0.13;0.13;;;;;;;4.74;100.00;95712.34;4978218;28;20073;-77
2023/12/21 00:37:22;;;;;;;0.20;0.20;;;;;;;4.66;100.00;95717.19;4961834;28;20085;-77
2023/12/21 00:40:08;;;;;;;0.13;0.13;;;;;;;4.71;100.00;95712.81;4975237;28;20046;-77
2023/12/21 00:42:54;;;;;;;0.10;0.10;;;;;;;4.67;100.00;95711.66;4975301;28;20046;-78
2023/12/21 00:45:40;;;;;;;0.10;0.10;;;;;;;4.72;100.00;95717.06;4972153;28;20042;-77
2023/12/21 00:48:26;;;;;;;0.10;0.10;;;;;;;4.74;100.00;95701.75;4975045;28;20554;-77
2023/12/21 00:51:12;;;;;;;0.10;0.10;;;;;;;4.68;100.00;95697.38;4972853;28;20051;-77
2023/12/21 00:53:58;;;;;;;0.10;0.10;;;;;;;4.69;100.00;95696.34;4973213;28;20070;-77
2023/12/21 00:56:43;;;;;;;0.20;0.20;;;;;;;4.69;100.00;95699.00;4960355;28;20128;-77
2023/12/21 00:59:29;;;;;;;0.20;0.20;;;;;;;4.72;100.00;95709.13;4971148;28;20427;-77
2023/12/21 01:02:15;;;;;;;0.10;0.10;;;;;;;4.69;100.00;95701.63;4970399;28;20108;-77
2023/12/21 01:05:01;;;;;;;0.10;0.10;;;;;;;4.66;100.00;95677.41;4974138;28;20046;-77
2023/12/21 01:07:47;;;;;;;0.10;0.10;;;;;;;4.73;100.00;95683.41;4971730;28;20116;-77
2023/12/21 01:10:33;;;;;;;0.20;0.20;;;;;;;4.81;100.00;95690.22;4970132;28;20042;-77
2023/12/21 01:13:19;;;;;;;0.20;0.20;;;;;;;4.79;100.00;95700.25;4971644;28;20074;-77
2023/12/21 01:16:05;;;;;;;0.10;0.10;;;;;;;4.81;100.00;95669.81;4970508;28;20501;-77
2023/12/21 01:18:51;;;;;;;0.10;0.10;;;;;;;4.79;100.00;95682.50;4973492;28;20043;-77
2023/12/21 01:21:37;;;;;;;0.20;0.20;;;;;;;4.82;100.00;95665.31;4962193;28;20495;-77
2023/12/21 01:24:23;;;;;;;0.10;0.10;;;;;;;4.84;100.00;95676.53;4974208;28;20043;-78
2023/12/21 01:27:09;;;;;;;0.20;0.20;;;;;;;4.83;100.00;95656.34;4971444;28;20050;-79
2023/12/21 01:29:55;;;;;;;0.10;0.10;;;;;;;4.82;100.00;95662.66;4974547;28;20042;-78
2023/12/21 01:32:41;;;;;;;0.20;0.20;;;;;;;4.83;100.00;95664.31;4970626;28;20402;-78
2023/12/21 01:35:27;;;;;;;0.15;0.15;;;;;;;4.78;100.00;95658.88;4956938;28;20053;-78
2023/12/21 01:38:13;;;;;;;0.20;0.20;;;;;;;4.86;100.00;95651.38;4972252;28;20050;-78
2023/12/21 01:40:59;;;;;;;0.10;0.10;;;;;;;4.87;100.00;95652.19;4969994;28;20049;-78
2023/12/21 01:43:45;;;;;;;0.13;0.13;;;;;;;4.89;100.00;95648.25;4967011;28;20042;-78
2023/12/21 01:46:33;;;;;;;0.10;0.10;;;;;;;4.93;100.00;95653.91;4954455;28;20094;-78
2023/12/21 01:49:20;;;;;;;0.20;0.20;;;;;;;4.86;100.00;95645.28;4957208;28;20050;-78
2023/12/21 01:52:08;;;;;;;0.20;0.20;;;;;;;4.94;100.00;95636.97;4969466;28;20089;-78
2023/12/21 01:54:56;;;;;;;0.20;0.20;;;;;;;4.95;100.00;95634.09;4969326;28;20101;-75
2023/12/21 01:57:43;;;;;;;0.20;0.20;;;;;;;4.92;100.00;95647.81;4972066;28;20537;-76
2023/12/21 02:00:29;;;;;;;0.10;0.10;;;;;;;4.93;100.00;95625.56;4956612;28;20104;-77
2023/12/21 02:03:16;;;;;;;0.17;0.17;;;;;;;4.96;100.00;95625.09;4970169;28;20042;-77
2023/12/21 02:06:02;;;;;;;0.20;0.20;;;;;;;4.95;100.00;95612.06;4963384;28;20396;-77
2023/12/21 02:08:48;;;;;;;0.20;0.20;;;;;;;4.90;100.00;95598.69;4955360;28;20120;-78
2023/12/21 02:11:34;;;;;;;0.10;0.10;;;;;;;4.87;100.00;95572.66;4969738;28;20042;-77
2023/12/21 02:14:21;;;;;;;0.20;0.20;;;;;;;4.97;100.00;95575.50;4969124;28;20038;-77
2023/12/21 02:17:12;;;;;;;0.10;0.10;;;;;;;4.94;100.00;95568.03;4966676;28;20038;-77
2023/12/21 02:19:59;;;;;;;0.20;0.20;;;;;;;4.93;100.00;95572.53;4962702;28;20071;-79
2023/12/21 02:22:47;;;;;;;0.10;0.10;;;;;;;5.03;100.00;95577.22;4968825;28;20050;-79
2023/12/21 02:25:36;;;;;;;0.10;0.10;;;;;;;5.02;100.00;95579.06;4972369;28;20610;-77
2023/12/21 02:28:22;;;;;;;0.10;0.10;;;;;;;5.06;100.00;95573.28;4969330;28;20085;-77
2023/12/21 02:31:08;;;;;;;0.10;0.10;;;;;;;5.02;100.00;95570.31;4965986;28;20046;-77
2023/12/21 02:33:53;;;;;;;0.10;0.10;;;;;;;4.94;100.00;95568.03;4969374;28;20257;-77
2023/12/21 02:36:39;;;;;;;0.15;0.15;;;;;;;4.91;100.00;95560.56;4967968;28;20050;-77
2023/12/21 02:39:25;;;;;;;0.10;0.10;;;;;;;4.97;100.00;95544.50;4968209;28;20038;-77
2023/12/21 02:42:11;;;;;;;0.10;0.10;;;;;;;5.02;100.00;95534.00;4967805;28;20499;-77
2023/12/21 02:44:57;;;;;;;0.20;0.20;;;;;;;5.06;100.00;95538.81;4962389;28;20034;-77
2023/12/21 02:47:43;;;;;;;0.20;0.20;;;;;;;5.07;100.00;95553.72;4954488;28;20391;-77
2023/12/21 02:50:29;;;;;;;0.10;0.10;;;;;;;5.12;100.00;95554.59;4969646;28;20046;-77
2023/12/21 02:53:15;;;;;;;0.20;0.20;;;;;;;5.11;100.00;95529.13;4971504;28;20042;-77
2023/12/21 02:56:00;;;;;;;0.20;0.20;;;;;;;5.12;100.00;95544.00;4968278;28;20041;-77
2023/12/21 02:58:46;;;;;;;0.20;0.20;;;;;;;5.11;100.00;95534.44;4970862;28;20057;-77
2023/12/21 03:01:32;;;;;;;0.10;0.10;;;;;;;5.19;100.00;95522.63;4969035;28;20554;-77
2023/12/21 03:04:18;;;;;;;0.10;0.10;;;;;;;5.20;100.00;95514.44;4971746;28;20479;-77
2023/12/21 03:07:04;;;;;;;0.20;0.20;;;;;;;5.16;100.00;95512.50;4968300;28;20047;-78
2023/12/21 03:09:51;;;;;;;0.20;0.20;;;;;;;5.20;100.00;95498.53;4970457;28;20124;-76
2023/12/21 03:12:37;;;;;;;0.10;0.10;;;;;;;5.15;100.00;95522.31;4968985;28;20148;-77
2023/12/21 03:15:22;;;;;;;0.10;0.10;;;;;;;5.24;100.00;95510.28;4962075;28;20046;-77
2023/12/21 03:18:08;;;;;;;0.13;0.13;;;;;;;5.16;100.00;95517.81;4968255;28;20045;-76
2023/12/21 03:20:54;;;;;;;0.20;0.20;;;;;;;5.23;100.00;95503.38;4967967;28;20472;-77
2023/12/21 03:23:41;;;;;;;0.10;0.10;;;;;;;5.24;100.00;95499.69;4969605;28;20487;-77
2023/12/21 03:26:27;;;;;;;0.20;0.20;;;;;;;5.27;100.00;95501.03;4968972;28;20050;-77
2023/12/21 03:29:15;;;;;;;0.10;0.10;;;;;;;5.22;100.00;95488.50;4969950;28;20126;-77
2023/12/21 03:32:01;;;;;;;0.10;0.10;;;;;;;5.27;100.00;95474.50;4974454;28;20064;-77
2023/12/21 03:34:49;;;;;;;0.20;0.20;;;;;;;5.31;100.00;95483.63;4974739;28;20038;-77
2023/12/21 03:37:35;;;;;;;0.10;0.10;;;;;;;5.31;100.00;95452.59;4973723;28;20054;-77
2023/12/21 03:40:21;;;;;;;0.20;0.20;;;;;;;5.31;100.00;95449.13;4971006;28;20042;-77
2023/12/21 03:43:07;;;;;;;0.17;0.17;;;;;;;5.30;100.00;95460.78;4972426;28;20667;-77
2023/12/21 03:45:53;;;;;;;0.20;0.20;;;;;;;5.38;100.00;95457.75;4972269;28;20065;-77
2023/12/21 03:48:39;;;;;;;0.10;0.10;;;;;;;5.31;100.00;95455.25;4972215;28;20049;-77
2023/12/21 03:51:25;;;;;;;0.13;0.13;;;;;;;5.30;100.00;95464.25;4972841;28;20047;-77
2023/12/21 03:54:11;;;;;;;0.10;0.10;;;;;;;5.28;100.00;95461.00;4967818;28;20039;-77
2023/12/21 03:56:57;;;;;;;0.20;0.20;;;;;;;5.32;100.00;95456.84;4971703;28;20034;-77
2023/12/21 03:59:43;;;;;;;0.20;0.20;;;;;;;5.36;100.00;95445.75;4972188;28;20042;-77
2023/12/21 04:02:28;;;;;;;0.20;0.20;;;;;;;5.39;100.00;95432.00;4971307;28;20057;-77
2023/12/21 04:05:15;;;;;;;0.20;0.20;;;;;;;5.39;100.00;95413.44;4963814;28;20443;-77
2023/12/21 04:08:00;;;;;;;0.20;0.20;;;;;;;5.37;100.00;95413.69;4973698;28;20080;-77
2023/12/21 04:10:47;;;;;;;0.20;0.20;;;;;;;5.39;100.00;95400.19;4972119;28;20129;-77
2023/12/21 04:13:33;;;;;;;0.10;0.10;;;;;;;5.33;100.00;95391.31;4974573;28;20050;-77
2023/12/21 04:16:19;;;;;;;0.20;0.20;;;;;;;5.32;100.00;95390.53;4971422;28;20471;-77
2023/12/21 04:19:06;;;;;;;0.15;0.15;;;;;;;5.28;100.00;95391.22;4973168;28;20050;-77
2023/12/21 04:21:52;;;;;;;0.25;0.25;;;;;;;5.34;100.00;95382.31;4970974;28;20470;-77
2023/12/21 04:24:38;;;;;;;0.10;0.10;;;;;;;5.36;100.00;95384.72;4960170;28;20042;-78
2023/12/21 04:27:24;;;;;;;0.13;0.13;;;;;;;5.39;100.00;95378.94;4970842;28;20054;-78
2023/12/21 04:30:11;;;;;;;0.20;0.20;;;;;;;5.46;100.00;95375.09;4971348;28;20753;-78
2023/12/21 04:32:57;;;;;;;0.17;0.17;;;;;;;5.42;100.00;95357.22;4970114;28;20178;-78
2023/12/21 04:35:46;;;;;;;0.20;0.20;;;;;;;5.47;100.00;95362.63;4957260;28;20420;-78
2023/12/21 04:38:31;;;;;;;0.20;0.20;;;;;;;5.45;100.00;95343.50;4971565;28;20078;-78
2023/12/21 04:41:17;;;;;;;0.10;0.10;;;;;;;5.39;100.00;95336.50;4969716;28;20061;-78
2023/12/21 04:44:05;;;;;;;0.20;0.20;;;;;;;5.42;100.00;95330.69;4973807;28;20414;-78
2023/12/21 04:46:51;;;;;;;0.10;0.10;;;;;;;5.32;100.00;95318.09;4969992;28;20054;-78
2023/12/21 04:49:36;;;;;;;0.20;0.20;;;;;;;5.44;100.00;95329.41;4973828;28;20046;-78
2023/12/21 04:52:22;;;;;;;0.20;0.20;;;;;;;5.45;100.00;95336.34;4972018;28;20070;-77
2023/12/21 04:55:08;;;;;;;0.10;0.10;;;;;;;5.42;100.00;95339.47;4972024;28;20046;-76
2023/12/21 04:57:54;;;;;;;0.17;0.17;;;;;;;5.44;100.00;95310.03;4970187;28;20038;-78
2023/12/21 05:00:47;;;;;;;0.20;0.20;;;;;;;5.38;100.00;95319.78;4957417;28;20556;-78
2023/12/21 05:03:33;;;;;;;0.20;0.20;;;;;;;5.43;100.00;95314.53;4973070;28;20078;-78
2023/12/21 05:06:19;;;;;;;0.13;0.13;;;;;;;5.46;100.00;95327.34;4972206;28;20150;-78
2023/12/21 05:09:05;;;;;;;0.20;0.20;;;;;;;5.53;100.00;95314.69;4974138;28;20049;-78
2023/12/21 05:11:52;;;;;;;0.13;0.13;;;;;;;5.59;100.00;95312.91;4973192;28;20137;-77
2023/12/21 05:14:38;;;;;;;0.10;0.10;;;;;;;5.51;100.00;95305.34;4973667;28;20054;-77
2023/12/21 05:17:24;;;;;;;0.20;0.20;;;;;;;5.48;100.00;95297.91;4972916;28;20042;-77
2023/12/21 05:20:11;;;;;;;0.20;0.20;;;;;;;5.50;100.00;95290.47;4972673;28;20038;-78
2023/12/21 05:22:57;;;;;;;0.20;0.20;;;;;;;5.53;100.00;95284.72;4973356;28;20039;-77
2023/12/21 05:25:43;;;;;;;0.20;0.20;;;;;;;5.54;100.00;95281.81;4973359;28;20053;-78
2023/12/21 05:28:29;;;;;;;0.20;0.20;;;;;;;5.58;100.00;95290.06;4972924;28;20054;-78
2023/12/21 05:31:22;;;;;;;0.13;0.13;;;;;;;5.58;100.00;95274.94;4960443;28;20042;-78
2023/12/21 05:34:08;;;;;;;0.30;0.30;;;;;;;5.58;100.00;95269.63;4975218;28;20038;-77
2023/12/21 05:36:54;;;;;;;0.10;0.10;;;;;;;5.58;100.00;95274.13;4971449;28;20043;-77
2023/12/21 05:39:40;;;;;;;0.10;0.10;;;;;;;5.56;100.00;95260.31;4972849;28;20090;-78
2023/12/21 05:42:26;;;;;;;0.20;0.20;;;;;;;5.58;100.00;95243.09;4973112;28;20049;-77
2023/12/21 05:45:12;;;;;;;0.20;0.20;;;;;;;5.58;100.00;95237.00;4975740;28;20054;-77
2023/12/21 05:47:58;;;;;;;0.10;0.10;;;;;;;5.59;100.00;95231.44;4959743;28;20569;-76
2023/12/21 05:50:44;;;;;;;0.10;0.10;;;;;;;5.61;100.00;95223.25;4973483;28;20538;-77
2023/12/21 05:53:30;;;;;;;0.10;0.10;;;;;;;5.58;100.00;95207.78;4970803;28;20545;-76
2023/12/21 05:56:16;;;;;;;0.10;0.10;;;;;;;5.56;100.00;95226.63;4959871;28;20057;-76
2023/12/21 05:59:02;;;;;;;0.10;0.10;;;;;;;5.58;100.00;95221.88;4975980;28;20105;-77
2023/12/21 06:01:48;;;;;;;0.20;0.20;;;;;;;5.53;100.00;95210.41;4969709;28;20058;-76
2023/12/21 06:04:34;;;;;;;0.15;0.15;;;;;;;5.66;100.00;95204.72;4972164;28;20043;-77
2023/12/21 06:07:19;;;;;;;0.10;0.10;;;;;;;5.65;100.00;95183.72;4970839;28;20054;-77
2023/12/21 06:10:08;;;;;;;0.10;0.10;;;;;;;5.64;100.00;95195.41;4974759;28;20125;-76
2023/12/21 06:12:56;;;;;;;0.20;0.20;;;;;;;5.59;100.00;95204.09;4960082;28;20046;-77
2023/12/21 06:15:42;;;;;;;0.10;0.10;;;;;;;5.65;100.00;95195.16;4975230;28;20037;-77
2023/12/21 06:18:29;;;;;;;0.10;0.10;;;;;;;5.62;100.00;95246.06;4971248;28;20046;-77
2023/12/21 06:21:14;;;;;;;0.20;0.20;;;;;;;5.64;100.00;95185.59;4971331;28;20034;-76
2023/12/21 06:24:00;;;;;;;0.10;0.10;;;;;;;5.62;100.00;95178.94;4971895;28;20050;-77
2023/12/21 06:26:46;;;;;;;0.20;0.20;;;;;;;5.62;100.00;95177.06;4972120;28;20035;-77
2023/12/21 06:29:32;;;;;;;0.20;0.20;;;;;;;5.61;100.00;95178.13;4973031;28;20046;-77
2023/12/21 06:32:18;;;;;;;0.10;0.10;;;;;;;5.63;100.00;95162.75;4970564;28;20055;-77
2023/12/21 06:35:04;;;;;;;0.20;0.20;;;;;;;5.74;100.00;95180.38;4971922;28;20101;-77
2023/12/21 06:37:50;;;;;;;0.10;0.10;;;;;;;5.72;100.00;95173.72;4973928;28;20055;-77
2023/12/21 06:40:36;;;;;;;0.20;0.20;;;;;;;5.71;100.00;95183.53;4958007;28;20566;-77
2023/12/21 06:43:23;;;;;;;0.10;0.10;;;;;;;5.69;100.00;95188.31;4960241;28;20042;-77
2023/12/21 06:46:13;;;;;;;0.20;0.20;;;;;;;5.73;100.00;95186.75;4972573;28;20057;-78
2023/12/21 06:48:59;;;;;;;0.10;0.10;;;;;;;5.73;100.00;95185.94;4961453;28;20070;-77
2023/12/21 06:51:45;;;;;;;0.10;0.10;;;;;;;5.79;100.00;95175.13;4971648;28;20035;-77
2023/12/21 06:54:31;;;;;;;0.13;0.13;;;;;;;5.77;100.00;95171.94;4946259;28;20074;-77
2023/12/21 06:57:17;;;;;;;0.20;0.20;;;;;;;5.78;100.00;95181.50;4971717;28;20048;-77
2023/12/21 07:00:05;;;;;;;0.13;0.13;;;;;;;5.81;100.00;95174.88;4970948;28;20039;-77
2023/12/21 07:02:51;;;;;;;0.10;0.10;;;;;;;5.79;100.00;95163.72;4971515;28;20141;-77
2023/12/21 07:05:37;;;;;;;0.10;0.10;;;;;;;5.77;100.00;95145.38;4970484;28;20488;-77
2023/12/21 07:08:23;;;;;;;0.20;0.20;;;;;;;5.82;100.00;95149.94;4973196;28;20043;-77
2023/12/21 07:11:09;;;;;;;0.20;0.20;;;;;;;5.79;100.00;95156.56;4970487;28;20047;-77
2023/12/21 07:13:55;;;;;;;0.17;0.17;;;;;;;5.82;100.00;95164.00;4970208;28;20046;-78
2023/12/21 07:16:41;;;;;;;0.10;0.10;;;;;;;5.79;100.00;95161.88;4969587;28;20097;-78
2023/12/21 07:19:27;;;;;;;0.20;0.20;;;;;;;5.84;100.00;95151.31;4971928;28;20507;-78
2023/12/21 07:22:13;;;;;;;0.10;0.10;;;;;;;5.83;100.00;95128.44;4968564;28;20122;-78
2023/12/21 07:24:58;;;;;;;0.17;0.17;;;;;;;5.86;100.00;95121.84;4971709;28;20038;-78
2023/12/21 07:27:44;;;;;;;0.10;0.10;;;;;;;5.87;100.00;95116.28;4954856;28;20043;-78
2023/12/21 07:30:30;;;;;;;0.20;0.20;;;;;;;5.85;100.00;95118.41;4969268;28;20038;-78
2023/12/21 07:33:16;;;;;;;0.20;0.20;;;;;;;5.88;100.00;95130.34;4971800;28;20326;-78
2023/12/21 07:36:02;;;;;;;0.20;0.20;;;;;;;5.83;100.00;95117.03;4970284;28;20047;-77
2023/12/21 07:38:48;;;;;;;0.20;0.20;;;;;;;5.91;100.00;95119.25;4973529;28;20053;-78
2023/12/21 07:41:34;;;;;;;0.20;0.20;;;;;;;5.91;100.00;95110.50;4969299;28;20129;-78
2023/12/21 07:44:20;;;;;;;0.20;0.20;;;;;;;5.90;100.00;95103.53;4954101;28;20105;-78
2023/12/21 07:47:06;;;;;;;0.20;0.20;;;;;;;5.88;100.00;95111.78;4973646;28;20068;-78
2023/12/21 07:49:52;;;;;;;0.20;0.20;;;;;;;5.93;100.00;95105.75;4969742;28;20068;-77
2023/12/21 07:52:38;;;;;;;0.17;0.17;;;;;;;5.96;100.00;95113.19;4970494;28;20104;-77
2023/12/21 07:55:24;;;;;;;0.20;0.20;;;;;;;6.01;100.00;95107.94;4972848;28;20368;-78
2023/12/21 07:58:10;;;;;;;0.10;0.10;;;;;;;5.99;100.00;95104.72;4971774;28;20504;-77
2023/12/21 08:00:55;;;;;;;0.10;0.10;;;;;;;5.96;100.00;95079.47;4969963;28;20408;-77
2023/12/21 08:03:42;;;;;;;0.20;0.20;;;;;;;5.98;100.00;95087.19;4970217;28;20399;-77
2023/12/21 08:06:28;;;;;;;0.20;0.20;;;;;;;6.01;100.00;95063.59;4970786;28;20038;-77
2023/12/21 08:09:15;;;;;;;0.10;0.10;;;;;;;6.06;100.00;95055.66;4970131;28;20070;-77
2023/12/21 08:12:01;;;;;;;0.10;0.10;;;;;;;6.05;100.00;95056.72;4970156;28;20432;-77
2023/12/21 08:14:47;;;;;;;0.15;0.15;;;;;;;6.07;100.00;95069.72;4970276;28;20046;-77
2023/12/21 08:17:33;;;;;;;0.10;0.10;;;;;;;6.10;100.00;95061.28;4974716;28;20046;-77
2023/12/21 08:20:18;;;;;;;0.10;0.10;;;;;;;6.09;100.00;95046.41;4974914;28;20096;-77
2023/12/21 08:23:04;;;;;;;0.20;0.20;;;;;;;6.14;100.00;95043.75;4976732;28;20122;-78
2023/12/21 08:25:50;;;;;;;0.20;0.20;;;;;;;6.14;100.00;95030.47;4964248;28;20230;-77
2023/12/21 08:28:37;;;;;;;0.10;0.10;;;;;;;6.15;100.00;95026.81;4973595;28;20296;-77
2023/12/21 08:31:25;;;;;;;0.20;0.20;;;;;;;6.13;100.00;95028.88;4970506;28;20068;-77
2023/12/21 08:34:11;;;;;;;0.20;0.20;;;;;;;6.15;100.00;95013.53;4974642;28;20046;-77
2023/12/21 08:36:57;;;;;;;0.15;0.15;;;;;;;6.16;100.00;94983.25;4973473;28;20042;-79
2023/12/21 08:39:43;;;;;;;0.10;0.10;;;;;;;6.25;100.00;94994.19;4971556;28;20039;-78
2023/12/21 08:42:30;;;;;;;0.17;0.17;;;;;;;6.27;100.00;94986.75;4971424;28;20380;-79
2023/12/21 08:45:16;;;;;;;0.20;0.20;;;;;;;6.25;100.00;94957.78;4974294;28;20039;-78
2023/12/21 08:48:03;;;;;;;0.10;0.10;;;;;;;6.28;100.00;94980.38;4972847;28;20090;-79
2023/12/21 08:50:49;;;;;;;0.20;0.20;;;;;;;6.28;100.00;94949.28;4972630;28;20046;-79
2023/12/21 08:53:35;;;;;;;0.10;0.10;;;;;;;6.25;100.00;94952.47;4973007;28;20047;-78
2023/12/21 08:56:22;;;;;;;0.10;0.10;;;;;;;6.30;100.00;94931.25;4970089;28;20529;-78
2023/12/21 08:59:07;;;;;;;0.10;0.10;;;;;;;6.24;100.00;94919.00;4976917;28;20039;-78
2023/12/21 09:01:56;;;;;;;0.20;0.20;;;;;;;6.28;100.00;94924.59;4974080;28;20563;-78
2023/12/21 09:04:42;;;;;;;0.20;0.20;;;;;;;6.33;100.00;94909.47;4974791;28;20042;-78
2023/12/21 09:07:29;;;;;;;0.20;0.20;;;;;;;6.34;100.00;94919.03;4972019;28;20126;-78
2023/12/21 09:10:14;;;;;;;0.20;0.20;;;;;;;6.38;100.00;94906.84;4972712;28;20038;-78
2023/12/21 09:13:00;;;;;;;0.10;0.10;;;;;;;6.38;100.00;94888.25;4972556;28;20585;-78
2023/12/21 09:15:46;;;;;;;0.20;0.20;;;;;;;6.34;100.00;94903.09;4972394;28;20043;-78
2023/12/21 09:18:32;;;;;;;0.15;0.15;;;;;;;6.41;100.00;94892.25;4971306;28;20038;-78
2023/12/21 09:21:18;;;;;;;0.20;0.20;;;;;;;6.45;100.00;94898.63;4971680;28;20074;-78
2023/12/21 09:24:04;;;;;;;0.20;0.20;;;;;;;6.51;100.00;94880.84;4972157;28;20080;-78
2023/12/21 09:26:50;;;;;;;0.20;0.20;;;;;;;6.49;100.00;94882.97;4969029;28;20038;-78
2023/12/21 09:29:35;;;;;;;0.20;0.20;;;;;;;6.48;100.00;94873.41;4973246;28;20038;-78
2023/12/21 09:32:21;;;;;;;0.10;0.10;;;;;;;6.50;100.00;94865.97;4970330;28;20055;-78
2023/12/21 09:35:07;;;;;;;0.10;0.10;;;;;;;6.48;100.00;94887.50;4970585;28;20498;-78
2023/12/21 09:37:53;;;;;;;0.20;0.20;;;;;;;6.42;100.00;94885.88;4974590;28;20068;-78
2023/12/21 09:40:39;;;;;;;0.20;0.20;;;;;;;6.46;100.00;94883.47;4971421;28;20128;-78
2023/12/21 09:43:27;;;;;;;0.20;0.20;;;;;;;6.41;100.00;94877.09;4956384;28;20138;-78
2023/12/21 09:46:15;;;;;;;0.10;0.10;;;;;;;6.44;100.00;94859.81;4969647;28;20193;-78
2023/12/21 09:49:04;;;;;;;0.10;0.10;;;;;;;6.51;100.00;94865.69;4974106;28;20149;-78
2023/12/21 09:51:51;;;;;;;0.10;0.10;;;;;;;6.50;100.00;94832.22;4969462;28;20046;-78
2023/12/21 09:54:41;;;;;;;0.10;0.10;;;;;;;6.54;100.00;94849.25;4956176;28;20658;-78
2023/12/21 09:57:27;;;;;;;0.10;0.10;;;;;;;6.58;100.00;94857.47;4947863;28;20141;-78
2023/12/21 10:00:13;;;;;;;0.10;0.10;;;;;;;6.59;100.00;94848.44;4969873;28;20038;-78
2023/12/21 10:02:59;;;;;;;0.20;0.20;;;;;;;6.62;100.00;94863.88;4971664;28;20144;-78
2023/12/21 10:05:47;;;;;;;0.10;0.10;;;;;;;6.61;100.00;94841.00;4970426;28;20038;-78
2023/12/21 10:08:33;;;;;;;0.10;0.10;;;;;;;6.62;100.00;94850.59;4972687;28;20400;-79
2023/12/21 10:11:19;;;;;;;0.20;0.20;;;;;;;6.64;100.00;94827.22;4968906;28;20484;-78
2023/12/21 10:14:15;;;;;;;0.20;0.20;;;;;;;6.67;100.00;94827.47;4972303;28;20046;-78
2023/12/21 10:17:01;;;;;;;0.20;0.20;;;;;;;6.78;100.00;94806.25;4968688;28;20101;-78
2023/12/21 10:19:48;;;;;;;0.20;0.20;;;;;;;6.75;100.00;94801.44;4971791;28;20042;-78
2023/12/21 10:22:34;;;;;;;0.17;0.17;;;;;;;6.77;100.00;94794.81;4971202;28;20045;-78
2023/12/21 10:25:21;;;;;;;0.20;0.20;;;;;;;6.78;100.00;94803.56;4969907;28;20125;-78
2023/12/21 10:28:10;;;;;;;0.13;0.13;;;;;;;6.76;100.00;94753.31;4971386;28;20060;-78
2023/12/21 10:31:00;;;;;;;0.10;0.10;;;;;;;6.94;100.00;94765.28;4969511;28;20042;-78
2023/12/21 10:33:46;;;;;;;0.10;0.10;;;;;;;6.86;100.00;94781.78;4970861;28;20041;-78
2023/12/21 10:36:32;;;;;;;0.10;0.10;;;;;;;6.81;100.00;94753.31;4955916;28;20460;-78
2023/12/21 10:39:22;;;;;;;0.20;0.20;;;;;;;6.84;100.00;94751.97;4973255;28;20589;-78
2023/12/21 10:42:08;;;;;;;0.20;0.20;;;;;;;6.84;100.00;94758.09;4969716;28;20407;-79
2023/12/21 10:44:55;;;;;;;0.10;0.10;;;;;;;6.80;100.00;94754.38;4973054;28;20403;-78
2023/12/21 10:47:48;;;;;;;0.10;0.10;;;;;;;6.80;100.00;94745.63;4972954;28;20046;-79
2023/12/21 10:50:35;;;;;;;0.20;0.20;;;;;;;6.77;100.00;94733.66;4968337;28;20514;-78
2023/12/21 10:53:23;;;;;;;0.20;0.20;;;;;;;6.72;100.00;94760.22;4970789;28;20056;-78
2023/12/21 10:56:09;;;;;;;0.10;0.10;;;;;;;6.75;100.00;94742.94;4970675;28;20038;-78
2023/12/21 10:58:56;;;;;;;0.10;0.10;;;;;;;6.74;100.00;94720.09;4974151;28;20554;-79
2023/12/21 11:01:42;;;;;;;0.10;0.10;;;;;;;6.75;100.00;94727.00;4971769;28;20026;-78
2023/12/21 11:04:29;;;;;;;0.20;0.20;;;;;;;6.74;100.00;94726.19;4969881;28;20047;-78
2023/12/21 11:07:16;;;;;;;0.20;0.20;;;;;;;6.78;100.00;94676.75;4974140;28;20482;-78
2023/12/21 11:10:02;;;;;;;0.10;0.10;;;;;;;6.75;100.00;94690.56;4963798;28;20034;-79
2023/12/21 11:12:49;;;;;;;0.10;0.10;;;;;;;6.89;100.00;94674.88;4970627;28;20038;-78
2023/12/21 11:15:36;;;;;;;0.20;0.20;;;;;;;6.84;100.00;94685.50;4970767;28;20326;-78
2023/12/21 11:18:23;;;;;;;0.10;0.10;;;;;;;6.86;100.00;94684.19;4967883;28;20065;-78
2023/12/21 11:21:10;;;;;;;0.20;0.20;;;;;;;6.82;100.00;94683.13;4968986;28;20093;-78
2023/12/21 11:23:56;;;;;;;0.20;0.20;;;;;;;6.82;100.00;94671.69;4972610;28;20117;-78
2023/12/21 11:26:44;;;;;;;0.10;0.10;;;;;;;6.85;100.00;94674.63;4969307;28;20038;-78
2023/12/21 11:29:30;;;;;;;0.15;0.15;;;;;;;6.86;100.00;94646.97;4972658;28;20122;-78
2023/12/21 11:32:24;;;;;;;0.10;0.10;;;;;;;6.90;100.00;94655.19;4969105;28;20093;-78
2023/12/21 11:35:23;;;;;;;0.10;0.10;;;;;;;6.93;100.00;94673.28;4969605;28;20077;-79
2023/12/21 11:38:11;;;;;;;0.20;0.20;;;;;;;6.93;100.00;94671.44;4970071;28;20080;-79
2023/12/21 11:40:57;;;;;;;0.10;0.10;;;;;;;7.01;100.00;94663.97;4970252;28;20518;-79
2023/12/21 11:44:05;;;;;;;0.10;0.10;;;;;;;7.01;100.00;94650.69;4958118;28;20495;-79
2023/12/21 11:46:59;;;;;;;0.10;0.10;;;;;;;7.09;100.00;94658.09;4954201;28;20050;-79
2023/12/21 11:49:45;;;;;;;0.10;0.10;;;;;;;7.04;100.00;94655.44;4969098;28;20514;-79
2023/12/21 11:52:31;;;;;;;0.10;0.10;;;;;;;6.96;100.00;94641.63;4973159;28;20043;-79
2023/12/21 11:55:25;;;;;;;0.20;0.20;;;;;;;7.01;100.00;94622.22;4975098;28;20049;-79
2023/12/21 11:58:18;;;;;;;0.15;0.15;;;;;;;6.99;100.00;94621.66;4974755;28;20494;-79
2023/12/21 12:01:04;;;;;;;0.20;0.20;;;;;;;7.09;100.00;94615.53;4971787;28;20043;-79
2023/12/21 12:03:51;;;;;;;0.20;0.20;;;;;;;7.10;100.00;94596.66;4974124;28;20039;-78
2023/12/21 12:06:38;;;;;;;0.20;0.20;;;;;;;7.18;100.00;94613.91;4972991;28;20102;-79
2023/12/21 12:09:24;;;;;;;0.20;0.20;;;;;;;7.19;100.00;94600.34;4970721;28;20038;-79
2023/12/21 12:12:11;;;;;;;0.20;0.20;;;;;;;7.19;100.00;94600.34;4972328;28;20867;-78
2023/12/21 12:14:57;;;;;;;0.10;0.10;;;;;;;7.20;100.00;94628.53;4973115;28;20042;-79
2023/12/21 12:17:43;;;;;;;0.10;0.10;;;;;;;7.21;100.00;94606.19;4972868;28;20058;-79
2023/12/21 12:20:29;;;;;;;0.20;0.20;;;;;;;7.16;100.00;94594.75;4973531;28;20050;-80
2023/12/21 12:23:18;;;;;;;0.20;0.20;;;;;;;7.25;100.00;94585.16;4975835;28;20416;-80
2023/12/21 12:26:04;;;;;;;0.20;0.20;;;;;;;7.33;100.00;94610.41;4970036;28;20539;-80
2023/12/21 12:28:52;;;;;;;0.20;0.20;;;;;;;7.40;100.00;94585.09;4974126;28;20042;-80
2023/12/21 12:31:38;;;;;;;0.10;0.10;;;;;;;7.49;100.00;94562.16;4969986;28;20640;-80
2023/12/21 12:34:24;;;;;;;0.10;0.10;;;;;;;7.45;100.00;94562.97;4972932;28;20035;-80
2023/12/21 12:37:40;;;;;;;0.10;0.10;;;;;;;7.51;100.00;94573.31;4907920;28;20468;-80
2023/12/21 12:40:26;;;;;;;0.15;0.15;;;;;;;7.50;100.00;94582.38;4782794;28;20050;-77
2023/12/21 12:43:12;;;;;;;0.10;0.10;;;;;;;7.49;100.00;94550.72;4973659;28;20046;-77
2023/12/21 12:45:58;;;;;;;0.20;0.20;;;;;;;7.48;100.00;94559.78;4970276;28;20065;-77
2023/12/21 12:48:44;;;;;;;0.20;0.20;;;;;;;7.49;100.00;94570.13;4975880;28;20480;-77
2023/12/21 12:51:30;;;;;;;0.10;0.10;;;;;;;7.47;100.00;94558.97;4972820;28;20858;-80
2023/12/21 12:54:16;;;;;;;0.10;0.10;;;;;;;7.39;100.00;94570.19;4972048;28;20051;-78
2023/12/21 12:57:03;;;;;;;0.10;0.10;;;;;;;7.37;100.00;94585.63;4959783;28;20407;-78
2023/12/21 12:59:49;;;;;;;0.10;0.10;;;;;;;7.34;100.00;94548.94;4972239;28;20042;-78
2023/12/21 13:02:35;;;;;;;0.10;0.10;;;;;;;7.33;100.00;94552.66;4969878;28;20041;-78
2023/12/21 13:05:21;;;;;;;0.20;0.20;;;;;;;7.35;100.00;94549.72;4970451;28;20729;-78